sensor_id;sensor_type;location;lat;lon;timestamp;P1;durP1;ratioP1;P2;durP2;ratioP2
6342;SDS011;3204;42.698;23.298;2023-04-24T00:02:12;6.95;;;6.20;;
6342;SDS011;3204;42.698;23.298;2023-04-24T00:04:38;7.90;;;7.30;;
6342;SDS011;3204;42.698;23.298;2023-04-24T00:07:05;8.70;;;7.80;;
6342;SDS011;3204;42.698;23.298;2023-04-24T00:09:31;7.82;;;7.22;;
6342;SDS011;3204;42.698;23.298;2023-04-24T00:11:57;10.43;;;7.85;;
6342;SDS011;3204;42.698;23.298;2023-04-24T00:14:23;9.00;;;8.10;;
6342;SDS011;3204;42.698;23.298;2023-04-24T00:16:49;10.00;;;7.53;;
6342;SDS011;3204;42.698;23.298;2023-04-24T00:19:14;8.57;;;7.88;;
6342;SDS011;3204;42.698;23.298;2023-04-24T00:21:40;8.25;;;7.43;;
6342;SDS011;3204;42.698;23.298;2023-04-24T00:24:06;9.63;;;7.95;;
6342;SDS011;3204;42.698;23.298;2023-04-24T00:26:34;8.50;;;7.53;;
6342;SDS011;3204;42.698;23.298;2023-04-24T00:28:59;12.65;;;7.38;;
6342;SDS011;3204;42.698;23.298;2023-04-24T00:31:24;8.85;;;7.97;;
6342;SDS011;3204;42.698;23.298;2023-04-24T00:33:50;8.27;;;7.55;;
6342;SDS011;3204;42.698;23.298;2023-04-24T00:36:16;12.00;;;7.63;;
6342;SDS011;3204;42.698;23.298;2023-04-24T00:38:41;8.60;;;7.78;;
6342;SDS011;3204;42.698;23.298;2023-04-24T00:41:07;8.07;;;7.43;;
6342;SDS011;3204;42.698;23.298;2023-04-24T00:43:32;7.63;;;6.95;;
6342;SDS011;3204;42.698;23.298;2023-04-24T00:45:57;7.20;;;6.22;;
6342;SDS011;3204;42.698;23.298;2023-04-24T00:48:24;6.45;;;5.70;;
6342;SDS011;3204;42.698;23.298;2023-04-24T00:50:50;5.60;;;5.20;;
6342;SDS011;3204;42.698;23.298;2023-04-24T00:53:15;5.60;;;5.20;;
6342;SDS011;3204;42.698;23.298;2023-04-24T00:55:41;6.07;;;5.78;;
6342;SDS011;3204;42.698;23.298;2023-04-24T00:58:06;5.70;;;5.20;;
6342;SDS011;3204;42.698;23.298;2023-04-24T01:00:32;5.78;;;5.43;;
6342;SDS011;3204;42.698;23.298;2023-04-24T01:02:59;6.35;;;5.75;;
6342;SDS011;3204;42.698;23.298;2023-04-24T01:05:27;5.72;;;5.35;;
6342;SDS011;3204;42.698;23.298;2023-04-24T01:07:52;25.73;;;14.38;;
6342;SDS011;3204;42.698;23.298;2023-04-24T01:10:18;19.25;;;11.88;;
6342;SDS011;3204;42.698;23.298;2023-04-24T01:12:45;11.88;;;7.20;;
6342;SDS011;3204;42.698;23.298;2023-04-24T01:15:11;6.38;;;5.93;;
6342;SDS011;3204;42.698;23.298;2023-04-24T01:17:37;6.35;;;5.95;;
6342;SDS011;3204;42.698;23.298;2023-04-24T01:20:03;7.30;;;6.55;;
6342;SDS011;3204;42.698;23.298;2023-04-24T01:22:30;6.20;;;5.75;;
6342;SDS011;3204;42.698;23.298;2023-04-24T01:24:57;6.05;;;5.75;;
6342;SDS011;3204;42.698;23.298;2023-04-24T01:27:22;6.60;;;5.93;;
6342;SDS011;3204;42.698;23.298;2023-04-24T01:29:48;6.30;;;5.85;;
6342;SDS011;3204;42.698;23.298;2023-04-24T01:32:14;6.10;;;5.63;;
6342;SDS011;3204;42.698;23.298;2023-04-24T01:34:40;7.63;;;6.53;;
6342;SDS011;3204;42.698;23.298;2023-04-24T01:37:06;6.03;;;5.43;;
6342;SDS011;3204;42.698;23.298;2023-04-24T01:39:32;6.35;;;5.95;;
6342;SDS011;3204;42.698;23.298;2023-04-24T01:41:58;6.50;;;6.10;;
6342;SDS011;3204;42.698;23.298;2023-04-24T01:44:24;6.28;;;5.97;;
6342;SDS011;3204;42.698;23.298;2023-04-24T01:46:51;8.23;;;6.78;;
6342;SDS011;3204;42.698;23.298;2023-04-24T01:49:18;6.75;;;6.25;;
6342;SDS011;3204;42.698;23.298;2023-04-24T01:51:43;6.78;;;6.13;;
6342;SDS011;3204;42.698;23.298;2023-04-24T01:54:09;7.75;;;7.05;;
6342;SDS011;3204;42.698;23.298;2023-04-24T01:56:34;8.25;;;6.60;;
6342;SDS011;3204;42.698;23.298;2023-04-24T01:59:02;8.48;;;6.43;;
6342;SDS011;3204;42.698;23.298;2023-04-24T02:01:31;6.78;;;6.35;;
6342;SDS011;3204;42.698;23.298;2023-04-24T02:03:59;7.30;;;6.30;;
6342;SDS011;3204;42.698;23.298;2023-04-24T02:06:25;6.95;;;6.32;;
6342;SDS011;3204;42.698;23.298;2023-04-24T02:08:50;6.43;;;5.90;;
6342;SDS011;3204;42.698;23.298;2023-04-24T02:11:16;8.15;;;7.35;;
6342;SDS011;3204;42.698;23.298;2023-04-24T02:13:41;7.00;;;6.50;;
6342;SDS011;3204;42.698;23.298;2023-04-24T02:16:07;8.30;;;6.45;;
6342;SDS011;3204;42.698;23.298;2023-04-24T02:18:32;7.00;;;6.45;;
6342;SDS011;3204;42.698;23.298;2023-04-24T02:20:58;7.68;;;6.97;;
6342;SDS011;3204;42.698;23.298;2023-04-24T02:23:23;7.93;;;7.13;;
6342;SDS011;3204;42.698;23.298;2023-04-24T02:25:49;9.15;;;6.93;;
6342;SDS011;3204;42.698;23.298;2023-04-24T02:28:14;12.02;;;8.15;;
6342;SDS011;3204;42.698;23.298;2023-04-24T02:30:40;16.65;;;11.68;;
6342;SDS011;3204;42.698;23.298;2023-04-24T02:33:05;11.45;;;8.63;;
6342;SDS011;3204;42.698;23.298;2023-04-24T02:35:31;12.00;;;7.20;;
6342;SDS011;3204;42.698;23.298;2023-04-24T02:37:56;10.15;;;7.80;;
6342;SDS011;3204;42.698;23.298;2023-04-24T02:40:22;12.85;;;8.15;;
6342;SDS011;3204;42.698;23.298;2023-04-24T02:42:47;11.20;;;7.78;;
6342;SDS011;3204;42.698;23.298;2023-04-24T02:45:13;8.38;;;7.35;;
6342;SDS011;3204;42.698;23.298;2023-04-24T02:47:38;13.20;;;7.38;;
6342;SDS011;3204;42.698;23.298;2023-04-24T02:50:04;19.60;;;10.13;;
6342;SDS011;3204;42.698;23.298;2023-04-24T02:52:30;33.95;;;10.90;;
6342;SDS011;3204;42.698;23.298;2023-04-24T02:54:55;12.93;;;8.75;;
6342;SDS011;3204;42.698;23.298;2023-04-24T02:57:21;22.38;;;9.70;;
6342;SDS011;3204;42.698;23.298;2023-04-24T02:59:46;11.25;;;7.78;;
6342;SDS011;3204;42.698;23.298;2023-04-24T03:02:12;10.55;;;8.30;;
6342;SDS011;3204;42.698;23.298;2023-04-24T03:04:37;11.05;;;8.25;;
6342;SDS011;3204;42.698;23.298;2023-04-24T03:07:04;15.57;;;8.68;;
6342;SDS011;3204;42.698;23.298;2023-04-24T03:09:30;11.70;;;9.30;;
6342;SDS011;3204;42.698;23.298;2023-04-24T03:11:56;16.08;;;8.70;;
6342;SDS011;3204;42.698;23.298;2023-04-24T03:14:23;20.02;;;8.55;;
6342;SDS011;3204;42.698;23.298;2023-04-24T03:16:48;9.23;;;8.45;;
6342;SDS011;3204;42.698;23.298;2023-04-24T03:19:15;14.13;;;9.20;;
6342;SDS011;3204;42.698;23.298;2023-04-24T03:21:40;13.88;;;8.82;;
6342;SDS011;3204;42.698;23.298;2023-04-24T03:24:09;10.13;;;8.73;;
6342;SDS011;3204;42.698;23.298;2023-04-24T03:26:34;13.23;;;9.43;;
6342;SDS011;3204;42.698;23.298;2023-04-24T03:29:00;13.40;;;9.40;;
6342;SDS011;3204;42.698;23.298;2023-04-24T03:31:26;10.70;;;9.77;;
6342;SDS011;3204;42.698;23.298;2023-04-24T03:33:51;14.70;;;9.95;;
6342;SDS011;3204;42.698;23.298;2023-04-24T03:36:17;23.35;;;9.52;;
6342;SDS011;3204;42.698;23.298;2023-04-24T03:38:44;17.25;;;10.20;;
6342;SDS011;3204;42.698;23.298;2023-04-24T03:41:10;17.40;;;9.32;;
6342;SDS011;3204;42.698;23.298;2023-04-24T03:43:35;29.25;;;11.05;;
6342;SDS011;3204;42.698;23.298;2023-04-24T03:46:01;30.20;;;11.23;;
6342;SDS011;3204;42.698;23.298;2023-04-24T03:48:27;17.88;;;10.13;;
6342;SDS011;3204;42.698;23.298;2023-04-24T03:50:52;21.02;;;11.25;;
6342;SDS011;3204;42.698;23.298;2023-04-24T03:53:18;18.42;;;11.43;;
6342;SDS011;3204;42.698;23.298;2023-04-24T03:55:44;14.05;;;11.20;;
6342;SDS011;3204;42.698;23.298;2023-04-24T03:58:10;15.75;;;10.27;;
6342;SDS011;3204;42.698;23.298;2023-04-24T04:00:36;17.48;;;11.10;;
6342;SDS011;3204;42.698;23.298;2023-04-24T04:03:02;16.77;;;11.20;;
6342;SDS011;3204;42.698;23.298;2023-04-24T04:05:28;21.35;;;11.65;;
6342;SDS011;3204;42.698;23.298;2023-04-24T04:07:54;18.75;;;12.18;;
6342;SDS011;3204;42.698;23.298;2023-04-24T04:10:20;21.15;;;11.95;;
6342;SDS011;3204;42.698;23.298;2023-04-24T04:12:45;16.15;;;12.32;;
6342;SDS011;3204;42.698;23.298;2023-04-24T04:15:11;19.02;;;11.93;;
6342;SDS011;3204;42.698;23.298;2023-04-24T04:17:36;18.85;;;11.90;;
6342;SDS011;3204;42.698;23.298;2023-04-24T04:20:03;17.10;;;12.45;;
6342;SDS011;3204;42.698;23.298;2023-04-24T04:22:33;13.88;;;12.10;;
6342;SDS011;3204;42.698;23.298;2023-04-24T04:24:59;17.35;;;12.18;;
6342;SDS011;3204;42.698;23.298;2023-04-24T04:27:24;17.10;;;13.13;;
6342;SDS011;3204;42.698;23.298;2023-04-24T04:29:51;15.57;;;11.70;;
6342;SDS011;3204;42.698;23.298;2023-04-24T04:32:17;47.38;;;25.88;;
6342;SDS011;3204;42.698;23.298;2023-04-24T04:34:43;24.80;;;16.00;;
6342;SDS011;3204;42.698;23.298;2023-04-24T04:37:10;23.58;;;15.93;;
6342;SDS011;3204;42.698;23.298;2023-04-24T04:39:37;50.85;;;28.58;;
6342;SDS011;3204;42.698;23.298;2023-04-24T04:42:03;15.00;;;11.95;;
6342;SDS011;3204;42.698;23.298;2023-04-24T04:44:28;8.32;;;7.55;;
6342;SDS011;3204;42.698;23.298;2023-04-24T04:46:55;8.27;;;7.32;;
6342;SDS011;3204;42.698;23.298;2023-04-24T04:49:21;7.65;;;7.05;;
6342;SDS011;3204;42.698;23.298;2023-04-24T04:51:48;8.15;;;6.90;;
6342;SDS011;3204;42.698;23.298;2023-04-24T04:54:15;7.60;;;7.00;;
6342;SDS011;3204;42.698;23.298;2023-04-24T04:56:41;7.38;;;6.65;;
6342;SDS011;3204;42.698;23.298;2023-04-24T04:59:07;10.63;;;7.22;;
6342;SDS011;3204;42.698;23.298;2023-04-24T05:01:32;7.28;;;6.70;;
6342;SDS011;3204;42.698;23.298;2023-04-24T05:03:58;8.88;;;6.78;;
6342;SDS011;3204;42.698;23.298;2023-04-24T05:06:23;10.52;;;7.22;;
6342;SDS011;3204;42.698;23.298;2023-04-24T05:08:49;7.72;;;6.97;;
6342;SDS011;3204;42.698;23.298;2023-04-24T05:11:14;8.43;;;7.72;;
6342;SDS011;3204;42.698;23.298;2023-04-24T05:13:40;8.98;;;7.22;;
6342;SDS011;3204;42.698;23.298;2023-04-24T05:16:05;8.13;;;7.40;;
6342;SDS011;3204;42.698;23.298;2023-04-24T05:18:31;7.88;;;7.28;;
6342;SDS011;3204;42.698;23.298;2023-04-24T05:20:57;8.32;;;7.30;;
6342;SDS011;3204;42.698;23.298;2023-04-24T05:23:22;7.90;;;7.25;;
6342;SDS011;3204;42.698;23.298;2023-04-24T05:25:48;8.23;;;7.43;;
6342;SDS011;3204;42.698;23.298;2023-04-24T05:28:13;7.93;;;7.22;;
6342;SDS011;3204;42.698;23.298;2023-04-24T05:30:39;8.75;;;7.80;;
6342;SDS011;3204;42.698;23.298;2023-04-24T05:33:05;8.43;;;7.75;;
6342;SDS011;3204;42.698;23.298;2023-04-24T05:35:30;21.13;;;8.07;;
6342;SDS011;3204;42.698;23.298;2023-04-24T05:37:56;8.90;;;8.05;;
6342;SDS011;3204;42.698;23.298;2023-04-24T05:40:21;8.70;;;7.90;;
6342;SDS011;3204;42.698;23.298;2023-04-24T05:42:47;12.60;;;8.15;;
6342;SDS011;3204;42.698;23.298;2023-04-24T05:45:12;7.70;;;7.00;;
6342;SDS011;3204;42.698;23.298;2023-04-24T05:47:41;8.70;;;7.82;;
6342;SDS011;3204;42.698;23.298;2023-04-24T05:50:09;10.02;;;7.85;;
6342;SDS011;3204;42.698;23.298;2023-04-24T05:52:34;8.85;;;7.93;;
6342;SDS011;3204;42.698;23.298;2023-04-24T05:55:00;8.82;;;7.85;;
6342;SDS011;3204;42.698;23.298;2023-04-24T05:57:25;12.05;;;8.43;;
6342;SDS011;3204;42.698;23.298;2023-04-24T05:59:51;8.85;;;8.13;;
6342;SDS011;3204;42.698;23.298;2023-04-24T06:02:17;18.05;;;8.75;;
6342;SDS011;3204;42.698;23.298;2023-04-24T06:04:42;9.63;;;8.77;;
6342;SDS011;3204;42.698;23.298;2023-04-24T06:07:10;8.65;;;7.80;;
6342;SDS011;3204;42.698;23.298;2023-04-24T06:09:36;9.48;;;8.55;;
6342;SDS011;3204;42.698;23.298;2023-04-24T06:12:01;10.27;;;8.95;;
6342;SDS011;3204;42.698;23.298;2023-04-24T06:14:27;13.00;;;9.07;;
6342;SDS011;3204;42.698;23.298;2023-04-24T06:16:53;12.35;;;9.05;;
6342;SDS011;3204;42.698;23.298;2023-04-24T06:19:18;9.13;;;8.48;;
6342;SDS011;3204;42.698;23.298;2023-04-24T06:21:43;12.43;;;9.18;;
6342;SDS011;3204;42.698;23.298;2023-04-24T06:24:09;10.60;;;8.85;;
6342;SDS011;3204;42.698;23.298;2023-04-24T06:26:35;9.35;;;8.43;;
6342;SDS011;3204;42.698;23.298;2023-04-24T06:29:01;12.63;;;8.73;;
6342;SDS011;3204;42.698;23.298;2023-04-24T06:31:26;8.77;;;7.85;;
6342;SDS011;3204;42.698;23.298;2023-04-24T06:33:52;9.90;;;8.82;;
6342;SDS011;3204;42.698;23.298;2023-04-24T06:36:17;11.05;;;8.45;;
6342;SDS011;3204;42.698;23.298;2023-04-24T06:38:42;12.63;;;9.18;;
6342;SDS011;3204;42.698;23.298;2023-04-24T06:41:09;10.23;;;9.18;;
6342;SDS011;3204;42.698;23.298;2023-04-24T06:43:35;9.98;;;9.00;;
6342;SDS011;3204;42.698;23.298;2023-04-24T06:46:00;10.05;;;9.10;;
6342;SDS011;3204;42.698;23.298;2023-04-24T06:48:27;9.57;;;8.60;;
6342;SDS011;3204;42.698;23.298;2023-04-24T06:50:52;12.02;;;9.25;;
6342;SDS011;3204;42.698;23.298;2023-04-24T06:53:18;16.42;;;9.52;;
6342;SDS011;3204;42.698;23.298;2023-04-24T06:55:43;10.07;;;9.23;;
6342;SDS011;3204;42.698;23.298;2023-04-24T06:58:10;11.45;;;9.30;;
6342;SDS011;3204;42.698;23.298;2023-04-24T07:00:36;12.90;;;9.40;;
6342;SDS011;3204;42.698;23.298;2023-04-24T07:03:02;15.13;;;9.57;;
6342;SDS011;3204;42.698;23.298;2023-04-24T07:05:30;14.38;;;8.50;;
6342;SDS011;3204;42.698;23.298;2023-04-24T07:07:55;10.68;;;9.50;;
6342;SDS011;3204;42.698;23.298;2023-04-24T07:10:23;18.40;;;10.15;;
6342;SDS011;3204;42.698;23.298;2023-04-24T07:12:49;13.38;;;9.65;;
6342;SDS011;3204;42.698;23.298;2023-04-24T07:15:15;15.02;;;10.02;;
6342;SDS011;3204;42.698;23.298;2023-04-24T07:17:41;13.02;;;10.23;;
6342;SDS011;3204;42.698;23.298;2023-04-24T07:20:09;10.45;;;9.45;;
6342;SDS011;3204;42.698;23.298;2023-04-24T07:22:35;13.15;;;10.27;;
6342;SDS011;3204;42.698;23.298;2023-04-24T07:25:01;13.45;;;10.25;;
6342;SDS011;3204;42.698;23.298;2023-04-24T07:27:27;13.68;;;9.85;;
6342;SDS011;3204;42.698;23.298;2023-04-24T07:29:53;11.57;;;10.38;;
6342;SDS011;3204;42.698;23.298;2023-04-24T07:32:18;11.95;;;10.63;;
6342;SDS011;3204;42.698;23.298;2023-04-24T07:34:43;14.93;;;11.30;;
6342;SDS011;3204;42.698;23.298;2023-04-24T07:37:09;15.63;;;10.48;;
6342;SDS011;3204;42.698;23.298;2023-04-24T07:39:34;16.63;;;10.20;;
6342;SDS011;3204;42.698;23.298;2023-04-24T07:42:00;13.93;;;10.35;;
6342;SDS011;3204;42.698;23.298;2023-04-24T07:44:26;11.63;;;10.48;;
6342;SDS011;3204;42.698;23.298;2023-04-24T07:46:51;18.35;;;10.55;;
6342;SDS011;3204;42.698;23.298;2023-04-24T07:49:17;12.48;;;9.93;;
6342;SDS011;3204;42.698;23.298;2023-04-24T07:51:42;8.82;;;8.18;;
6342;SDS011;3204;42.698;23.298;2023-04-24T07:54:08;9.38;;;8.52;;
6342;SDS011;3204;42.698;23.298;2023-04-24T07:56:33;9.20;;;8.32;;
6342;SDS011;3204;42.698;23.298;2023-04-24T07:58:59;8.52;;;7.72;;
6342;SDS011;3204;42.698;23.298;2023-04-24T08:01:26;8.30;;;6.18;;
6342;SDS011;3204;42.698;23.298;2023-04-24T08:03:51;9.07;;;6.65;;
6342;SDS011;3204;42.698;23.298;2023-04-24T08:06:17;7.88;;;7.35;;
6342;SDS011;3204;42.698;23.298;2023-04-24T08:08:42;8.63;;;7.75;;
6342;SDS011;3204;42.698;23.298;2023-04-24T08:11:08;9.13;;;8.23;;
6342;SDS011;3204;42.698;23.298;2023-04-24T08:13:33;9.07;;;7.25;;
6342;SDS011;3204;42.698;23.298;2023-04-24T08:15:59;9.00;;;8.15;;
6342;SDS011;3204;42.698;23.298;2023-04-24T08:18:24;8.65;;;7.85;;
6342;SDS011;3204;42.698;23.298;2023-04-24T08:20:50;11.95;;;8.02;;
6342;SDS011;3204;42.698;23.298;2023-04-24T08:23:15;9.05;;;8.25;;
6342;SDS011;3204;42.698;23.298;2023-04-24T08:25:40;8.75;;;7.93;;
6342;SDS011;3204;42.698;23.298;2023-04-24T08:28:06;8.30;;;7.60;;
6342;SDS011;3204;42.698;23.298;2023-04-24T08:30:35;10.13;;;8.27;;
6342;SDS011;3204;42.698;23.298;2023-04-24T08:33:00;9.73;;;8.80;;
6342;SDS011;3204;42.698;23.298;2023-04-24T08:35:26;8.93;;;8.10;;
6342;SDS011;3204;42.698;23.298;2023-04-24T08:37:52;8.90;;;8.20;;
6342;SDS011;3204;42.698;23.298;2023-04-24T08:40:18;11.65;;;8.43;;
6342;SDS011;3204;42.698;23.298;2023-04-24T08:42:48;8.63;;;7.97;;
6342;SDS011;3204;42.698;23.298;2023-04-24T08:45:17;9.55;;;8.02;;
6342;SDS011;3204;42.698;23.298;2023-04-24T08:47:43;9.05;;;8.30;;
6342;SDS011;3204;42.698;23.298;2023-04-24T08:50:10;14.57;;;8.38;;
6342;SDS011;3204;42.698;23.298;2023-04-24T08:52:36;10.07;;;8.55;;
6342;SDS011;3204;42.698;23.298;2023-04-24T08:55:01;9.27;;;8.48;;
6342;SDS011;3204;42.698;23.298;2023-04-24T08:57:28;9.10;;;8.32;;
6342;SDS011;3204;42.698;23.298;2023-04-24T08:59:54;9.05;;;8.43;;
6342;SDS011;3204;42.698;23.298;2023-04-24T09:02:22;9.07;;;8.18;;
6342;SDS011;3204;42.698;23.298;2023-04-24T09:04:49;12.43;;;9.07;;
6342;SDS011;3204;42.698;23.298;2023-04-24T09:07:15;12.32;;;9.07;;
6342;SDS011;3204;42.698;23.298;2023-04-24T09:09:42;9.25;;;8.40;;
6342;SDS011;3204;42.698;23.298;2023-04-24T09:12:08;8.88;;;8.05;;
6342;SDS011;3204;42.698;23.298;2023-04-24T09:14:35;8.60;;;7.88;;
6342;SDS011;3204;42.698;23.298;2023-04-24T09:17:03;8.77;;;7.90;;
6342;SDS011;3204;42.698;23.298;2023-04-24T09:19:29;9.32;;;7.05;;
6342;SDS011;3204;42.698;23.298;2023-04-24T09:21:54;8.75;;;7.93;;
6342;SDS011;3204;42.698;23.298;2023-04-24T09:24:20;8.23;;;6.95;;
6342;SDS011;3204;42.698;23.298;2023-04-24T09:26:55;10.43;;;7.57;;
6342;SDS011;3204;42.698;23.298;2023-04-24T09:29:26;7.97;;;7.40;;
6342;SDS011;3204;42.698;23.298;2023-04-24T09:31:52;7.88;;;7.18;;
6342;SDS011;3204;42.698;23.298;2023-04-24T09:34:24;8.63;;;7.93;;
6342;SDS011;3204;42.698;23.298;2023-04-24T09:36:50;7.55;;;7.13;;
6342;SDS011;3204;42.698;23.298;2023-04-24T09:39:17;8.48;;;7.80;;
6342;SDS011;3204;42.698;23.298;2023-04-24T09:41:45;8.07;;;7.32;;
6342;SDS011;3204;42.698;23.298;2023-04-24T09:44:16;8.80;;;7.40;;
6342;SDS011;3204;42.698;23.298;2023-04-24T09:46:44;8.63;;;6.80;;
6342;SDS011;3204;42.698;23.298;2023-04-24T09:49:14;10.38;;;6.75;;
6342;SDS011;3204;42.698;23.298;2023-04-24T09:51:41;9.10;;;7.05;;
6342;SDS011;3204;42.698;23.298;2023-04-24T09:54:17;10.02;;;7.28;;
6342;SDS011;3204;42.698;23.298;2023-04-24T09:56:49;7.28;;;6.57;;
6342;SDS011;3204;42.698;23.298;2023-04-24T09:59:16;10.88;;;7.05;;
6342;SDS011;3204;42.698;23.298;2023-04-24T10:01:42;7.97;;;7.25;;
6342;SDS011;3204;42.698;23.298;2023-04-24T10:04:16;7.57;;;7.18;;
6342;SDS011;3204;42.698;23.298;2023-04-24T10:06:42;6.90;;;6.32;;
6342;SDS011;3204;42.698;23.298;2023-04-24T10:09:08;8.50;;;6.05;;
6342;SDS011;3204;42.698;23.298;2023-04-24T10:11:36;8.18;;;6.35;;
6342;SDS011;3204;42.698;23.298;2023-04-24T10:14:02;6.85;;;6.18;;
6342;SDS011;3204;42.698;23.298;2023-04-24T10:16:28;6.95;;;6.35;;
6342;SDS011;3204;42.698;23.298;2023-04-24T10:18:55;7.50;;;6.78;;
6342;SDS011;3204;42.698;23.298;2023-04-24T10:21:24;6.82;;;6.40;;
6342;SDS011;3204;42.698;23.298;2023-04-24T10:23:51;6.90;;;6.30;;
6342;SDS011;3204;42.698;23.298;2023-04-24T10:26:18;6.40;;;5.82;;
6342;SDS011;3204;42.698;23.298;2023-04-24T10:28:47;7.32;;;6.07;;
6342;SDS011;3204;42.698;23.298;2023-04-24T10:31:13;9.50;;;6.55;;
6342;SDS011;3204;42.698;23.298;2023-04-24T10:33:42;7.60;;;6.75;;
6342;SDS011;3204;42.698;23.298;2023-04-24T10:36:11;7.28;;;5.93;;
6342;SDS011;3204;42.698;23.298;2023-04-24T10:38:40;9.88;;;6.20;;
6342;SDS011;3204;42.698;23.298;2023-04-24T10:41:09;6.30;;;5.80;;
6342;SDS011;3204;42.698;23.298;2023-04-24T10:43:40;6.35;;;5.85;;
6342;SDS011;3204;42.698;23.298;2023-04-24T10:46:06;6.85;;;6.45;;
6342;SDS011;3204;42.698;23.298;2023-04-24T10:48:33;7.47;;;6.78;;
6342;SDS011;3204;42.698;23.298;2023-04-24T10:50:59;6.65;;;6.25;;
6342;SDS011;3204;42.698;23.298;2023-04-24T10:53:27;6.55;;;6.07;;
6342;SDS011;3204;42.698;23.298;2023-04-24T10:55:57;7.10;;;5.82;;
6342;SDS011;3204;42.698;23.298;2023-04-24T10:58:43;6.25;;;5.88;;
6342;SDS011;3204;42.698;23.298;2023-04-24T11:01:23;11.90;;;10.70;;
6342;SDS011;3204;42.698;23.298;2023-04-24T11:03:58;9.43;;;6.57;;
6342;SDS011;3204;42.698;23.298;2023-04-24T11:06:30;7.25;;;6.60;;
6342;SDS011;3204;42.698;23.298;2023-04-24T11:09:04;10.23;;;6.70;;
6342;SDS011;3204;42.698;23.298;2023-04-24T11:11:31;7.25;;;6.38;;
6342;SDS011;3204;42.698;23.298;2023-04-24T11:18:52;14.85;;;6.70;;
6342;SDS011;3204;42.698;23.298;2023-04-24T11:21:27;6.15;;;5.50;;
6342;SDS011;3204;42.698;23.298;2023-04-24T11:23:58;8.20;;;6.00;;
6342;SDS011;3204;42.698;23.298;2023-04-24T11:26:23;6.88;;;6.40;;
6342;SDS011;3204;42.698;23.298;2023-04-24T11:29:06;6.43;;;5.47;;
6342;SDS011;3204;42.698;23.298;2023-04-24T11:34:12;6.43;;;6.00;;
6342;SDS011;3204;42.698;23.298;2023-04-24T11:36:39;6.93;;;6.15;;
6342;SDS011;3204;42.698;23.298;2023-04-24T11:39:05;6.18;;;5.80;;
6342;SDS011;3204;42.698;23.298;2023-04-24T11:41:31;6.47;;;6.18;;
6342;SDS011;3204;42.698;23.298;2023-04-24T11:43:58;7.22;;;5.90;;
6342;SDS011;3204;42.698;23.298;2023-04-24T11:46:26;5.90;;;5.70;;
6342;SDS011;3204;42.698;23.298;2023-04-24T11:48:53;6.28;;;5.88;;
6342;SDS011;3204;42.698;23.298;2023-04-24T11:51:19;5.93;;;5.50;;
6342;SDS011;3204;42.698;23.298;2023-04-24T11:53:44;5.72;;;5.43;;
6342;SDS011;3204;42.698;23.298;2023-04-24T11:56:10;5.45;;;5.15;;
6342;SDS011;3204;42.698;23.298;2023-04-24T11:58:37;5.18;;;4.88;;
6342;SDS011;3204;42.698;23.298;2023-04-24T12:01:03;5.10;;;4.90;;
6342;SDS011;3204;42.698;23.298;2023-04-24T12:03:30;4.90;;;4.60;;
6342;SDS011;3204;42.698;23.298;2023-04-24T12:06:09;5.20;;;4.90;;
6342;SDS011;3204;42.698;23.298;2023-04-24T12:08:36;4.72;;;4.47;;
6342;SDS011;3204;42.698;23.298;2023-04-24T12:11:02;4.82;;;4.63;;
6342;SDS011;3204;42.698;23.298;2023-04-24T12:13:29;5.10;;;4.75;;
6342;SDS011;3204;42.698;23.298;2023-04-24T12:15:59;5.05;;;4.75;;
6342;SDS011;3204;42.698;23.298;2023-04-24T12:18:25;5.20;;;5.00;;
6342;SDS011;3204;42.698;23.298;2023-04-24T12:20:51;5.88;;;5.40;;
6342;SDS011;3204;42.698;23.298;2023-04-24T12:23:16;6.53;;;5.07;;
6342;SDS011;3204;42.698;23.298;2023-04-24T12:25:59;5.88;;;5.30;;
6342;SDS011;3204;42.698;23.298;2023-04-24T12:28:34;6.13;;;5.50;;
6342;SDS011;3204;42.698;23.298;2023-04-24T12:31:00;5.32;;;4.88;;
6342;SDS011;3204;42.698;23.298;2023-04-24T12:33:26;5.85;;;5.35;;
6342;SDS011;3204;42.698;23.298;2023-04-24T12:35:52;5.00;;;4.60;;
6342;SDS011;3204;42.698;23.298;2023-04-24T12:38:25;4.78;;;4.57;;
6342;SDS011;3204;42.698;23.298;2023-04-24T12:41:01;5.25;;;4.85;;
6342;SDS011;3204;42.698;23.298;2023-04-24T12:43:30;8.50;;;6.05;;
6342;SDS011;3204;42.698;23.298;2023-04-24T12:45:56;5.80;;;5.32;;
6342;SDS011;3204;42.698;23.298;2023-04-24T12:48:22;5.95;;;5.55;;
6342;SDS011;3204;42.698;23.298;2023-04-24T12:50:47;5.55;;;5.05;;
6342;SDS011;3204;42.698;23.298;2023-04-24T12:53:13;6.80;;;6.20;;
6342;SDS011;3204;42.698;23.298;2023-04-24T12:55:40;5.88;;;5.60;;
6342;SDS011;3204;42.698;23.298;2023-04-24T12:58:06;5.28;;;4.97;;
6342;SDS011;3204;42.698;23.298;2023-04-24T13:00:31;5.45;;;5.07;;
6342;SDS011;3204;42.698;23.298;2023-04-24T13:02:56;5.43;;;5.13;;
6342;SDS011;3204;42.698;23.298;2023-04-24T13:05:22;5.10;;;4.70;;
6342;SDS011;3204;42.698;23.298;2023-04-24T13:07:48;6.35;;;4.82;;
6342;SDS011;3204;42.698;23.298;2023-04-24T13:10:13;5.88;;;5.57;;
6342;SDS011;3204;42.698;23.298;2023-04-24T13:12:39;5.43;;;4.97;;
6342;SDS011;3204;42.698;23.298;2023-04-24T13:15:05;7.45;;;6.95;;
6342;SDS011;3204;42.698;23.298;2023-04-24T13:17:31;5.63;;;5.15;;
6342;SDS011;3204;42.698;23.298;2023-04-24T13:19:58;5.93;;;4.82;;
6342;SDS011;3204;42.698;23.298;2023-04-24T13:22:23;5.18;;;4.88;;
6342;SDS011;3204;42.698;23.298;2023-04-24T13:24:50;5.65;;;5.22;;
6342;SDS011;3204;42.698;23.298;2023-04-24T13:27:15;7.88;;;6.15;;
6342;SDS011;3204;42.698;23.298;2023-04-24T13:29:42;5.20;;;4.82;;
6342;SDS011;3204;42.698;23.298;2023-04-24T13:32:08;6.93;;;5.05;;
6342;SDS011;3204;42.698;23.298;2023-04-24T13:34:34;7.72;;;4.43;;
6342;SDS011;3204;42.698;23.298;2023-04-24T13:37:00;6.15;;;4.53;;
6342;SDS011;3204;42.698;23.298;2023-04-24T13:39:26;4.80;;;4.50;;
6342;SDS011;3204;42.698;23.298;2023-04-24T13:41:52;5.28;;;4.97;;
6342;SDS011;3204;42.698;23.298;2023-04-24T13:44:18;8.82;;;4.88;;
6342;SDS011;3204;42.698;23.298;2023-04-24T13:46:46;4.90;;;4.63;;
6342;SDS011;3204;42.698;23.298;2023-04-24T13:49:13;4.47;;;4.22;;
6342;SDS011;3204;42.698;23.298;2023-04-24T13:51:39;4.78;;;4.30;;
6342;SDS011;3204;42.698;23.298;2023-04-24T13:54:05;5.00;;;4.07;;
6342;SDS011;3204;42.698;23.298;2023-04-24T13:56:31;4.93;;;4.53;;
6342;SDS011;3204;42.698;23.298;2023-04-24T13:58:56;4.32;;;4.07;;
6342;SDS011;3204;42.698;23.298;2023-04-24T14:01:22;5.50;;;4.65;;
6342;SDS011;3204;42.698;23.298;2023-04-24T14:03:51;6.60;;;4.40;;
6342;SDS011;3204;42.698;23.298;2023-04-24T14:06:20;9.38;;;5.28;;
6342;SDS011;3204;42.698;23.298;2023-04-24T14:08:46;7.65;;;5.40;;
6342;SDS011;3204;42.698;23.298;2023-04-24T14:11:12;8.18;;;4.80;;
6342;SDS011;3204;42.698;23.298;2023-04-24T14:13:38;4.75;;;4.45;;
6342;SDS011;3204;42.698;23.298;2023-04-24T14:16:05;5.15;;;4.82;;
6342;SDS011;3204;42.698;23.298;2023-04-24T14:18:31;5.93;;;5.57;;
6342;SDS011;3204;42.698;23.298;2023-04-24T14:20:56;5.50;;;5.00;;
6342;SDS011;3204;42.698;23.298;2023-04-24T14:23:22;5.82;;;5.22;;
6342;SDS011;3204;42.698;23.298;2023-04-24T14:25:48;5.85;;;5.15;;
6342;SDS011;3204;42.698;23.298;2023-04-24T14:28:17;5.80;;;5.47;;
6342;SDS011;3204;42.698;23.298;2023-04-24T14:30:46;5.78;;;5.28;;
6342;SDS011;3204;42.698;23.298;2023-04-24T14:33:12;5.38;;;4.90;;
6342;SDS011;3204;42.698;23.298;2023-04-24T14:35:38;5.70;;;5.30;;
6342;SDS011;3204;42.698;23.298;2023-04-24T14:38:04;5.13;;;4.63;;
6342;SDS011;3204;42.698;23.298;2023-04-24T14:40:29;5.13;;;4.78;;
6342;SDS011;3204;42.698;23.298;2023-04-24T14:42:56;5.20;;;4.80;;
6342;SDS011;3204;42.698;23.298;2023-04-24T14:45:22;4.70;;;4.50;;
6342;SDS011;3204;42.698;23.298;2023-04-24T14:47:48;4.65;;;4.45;;
6342;SDS011;3204;42.698;23.298;2023-04-24T14:50:14;4.97;;;4.57;;
6342;SDS011;3204;42.698;23.298;2023-04-24T14:52:40;5.32;;;5.00;;
6342;SDS011;3204;42.698;23.298;2023-04-24T14:55:05;6.05;;;5.55;;
6342;SDS011;3204;42.698;23.298;2023-04-24T14:57:32;7.60;;;4.95;;
6342;SDS011;3204;42.698;23.298;2023-04-24T14:59:58;5.25;;;4.90;;